createdAt,value
2017-12-28T00:05:21.076Z,98251
2017-12-28T00:07:49.130Z,98250
2017-12-28T00:10:17.327Z,98266
2017-12-28T00:12:45.723Z,98269
2017-12-28T00:15:13.793Z,98147
2017-12-28T00:17:42.103Z,98268
2017-12-28T00:20:11.640Z,98286
2017-12-28T00:22:40.915Z,98295
2017-12-28T00:25:10.592Z,98301
2017-12-28T00:27:39.027Z,98299
2017-12-28T00:30:07.206Z,98306
2017-12-28T00:32:36.226Z,98317
2017-12-28T00:35:04.366Z,98319
2017-12-28T00:37:33.362Z,98328
2017-12-28T00:40:02.265Z,98325
2017-12-28T00:42:30.834Z,98316
2017-12-28T00:44:58.963Z,98335
2017-12-28T00:47:27.423Z,98332
2017-12-28T00:49:55.509Z,98332
2017-12-28T00:52:24.429Z,98332
2017-12-28T00:54:52.523Z,98340
2017-12-28T00:57:21.699Z,98343
2017-12-28T00:59:50.826Z,98349
2017-12-28T01:02:19.684Z,98352
2017-12-28T01:04:47.862Z,98360
2017-12-28T01:07:16.134Z,98366
2017-12-28T01:09:44.640Z,98370
2017-12-28T01:12:13.524Z,98377
2017-12-28T01:14:41.667Z,98386
2017-12-28T01:17:09.899Z,98383
2017-12-28T01:19:38.068Z,98390
2017-12-28T01:22:08.074Z,98384
2017-12-28T01:24:42.414Z,98383
2017-12-28T01:27:10.533Z,98383
2017-12-28T01:29:38.997Z,98381
2017-12-28T01:32:07.066Z,98393
2017-12-28T01:34:35.467Z,98396
2017-12-28T01:37:03.559Z,98404
2017-12-28T01:39:31.664Z,98407
2017-12-28T01:41:59.794Z,98400
2017-12-28T01:44:27.891Z,98410
2017-12-28T01:46:55.998Z,98410
2017-12-28T01:49:24.166Z,98279
2017-12-28T01:51:52.240Z,98422
2017-12-28T01:54:20.452Z,98434
2017-12-28T01:56:48.799Z,98435
2017-12-28T01:59:16.964Z,98436
2017-12-28T02:01:50.018Z,98445
2017-12-28T02:04:18.988Z,98449
2017-12-28T02:06:48.236Z,98460
2017-12-28T02:09:16.647Z,98459
2017-12-28T02:11:44.786Z,98463
2017-12-28T02:14:12.898Z,98458
2017-12-28T02:16:41.018Z,98467
2017-12-28T02:19:09.855Z,98472
2017-12-28T02:21:37.918Z,98466
2017-12-28T02:24:06.072Z,98475
2017-12-28T02:26:34.153Z,98463
2017-12-28T02:29:02.275Z,98481
2017-12-28T02:31:30.396Z,98482
2017-12-28T02:36:37.807Z,98494
2017-12-28T02:39:05.946Z,98484
2017-12-28T02:41:34.848Z,98489
2017-12-28T02:44:03.746Z,98491
2017-12-28T02:46:31.923Z,98496
2017-12-28T02:49:00.026Z,98502
2017-12-28T02:51:28.181Z,98509
2017-12-28T02:53:56.417Z,98518
2017-12-28T02:56:24.487Z,98523
2017-12-28T02:58:53.431Z,98523
2017-12-28T03:01:22.518Z,98527
2017-12-28T03:03:50.647Z,98535
2017-12-28T03:06:18.790Z,98541
2017-12-28T03:08:46.947Z,98543
2017-12-28T03:11:15.026Z,98552
2017-12-28T03:13:43.181Z,98553
2017-12-28T03:16:11.275Z,98553
2017-12-28T03:18:39.410Z,98561
2017-12-28T03:21:07.585Z,98568
2017-12-28T03:23:35.667Z,98557
2017-12-28T03:26:03.794Z,98558
2017-12-28T03:28:31.867Z,98561
2017-12-28T03:31:00.332Z,98565
2017-12-28T03:33:28.439Z,98573
2017-12-28T03:35:57.550Z,98578
2017-12-28T03:38:25.642Z,98586
2017-12-28T03:40:53.760Z,98574
2017-12-28T03:43:22.183Z,98580
2017-12-28T03:45:50.363Z,98591
2017-12-28T03:51:03.044Z,98595
2017-12-28T03:53:31.143Z,98599
2017-12-28T03:56:00.058Z,98604
2017-12-28T03:58:28.136Z,98606
2017-12-28T04:00:58.162Z,98607
2017-12-28T04:03:26.300Z,98614
2017-12-28T04:05:54.428Z,98610
2017-12-28T04:13:41.743Z,98633
2017-12-28T04:16:10.114Z,98639
2017-12-28T04:18:38.202Z,98628
2017-12-28T04:21:06.315Z,98644
2017-12-28T04:26:26.260Z,98631
2017-12-28T04:28:54.336Z,98644
2017-12-28T04:31:22.403Z,98653
2017-12-28T04:33:50.546Z,98657
2017-12-28T04:36:18.622Z,98653
2017-12-28T04:38:46.867Z,98654
2017-12-28T04:41:15.021Z,98656
2017-12-28T04:43:43.175Z,98672
2017-12-28T04:46:11.286Z,98673
2017-12-28T04:48:39.378Z,98678
2017-12-28T04:51:07.638Z,98678
2017-12-28T04:56:13.245Z,98682
2017-12-28T04:58:41.400Z,98687
2017-12-28T05:01:09.590Z,98676
2017-12-28T05:03:37.657Z,98678
2017-12-28T05:06:05.783Z,98687
2017-12-28T05:08:34.008Z,98685
2017-12-28T05:11:02.856Z,98712
2017-12-28T05:13:31.060Z,98705
2017-12-28T05:15:59.316Z,98704
2017-12-28T05:18:27.525Z,98715
2017-12-28T05:20:56.602Z,98721
2017-12-28T05:23:24.735Z,98725
2017-12-28T05:31:33.574Z,98746
2017-12-28T05:34:01.995Z,98749
2017-12-28T05:36:30.167Z,98749
2017-12-28T05:38:58.516Z,98746
2017-12-28T05:41:27.639Z,98750
2017-12-28T05:43:55.722Z,98752
2017-12-28T05:46:23.817Z,98756
2017-12-28T05:48:52.579Z,98761
2017-12-28T05:51:20.713Z,98762
2017-12-28T05:53:49.432Z,98776
2017-12-28T05:56:17.511Z,98792
2017-12-28T05:58:49.064Z,98787
2017-12-28T06:01:18.334Z,98792
2017-12-28T06:03:46.447Z,98795
2017-12-28T06:06:14.591Z,98798
2017-12-28T06:08:44.726Z,98795
2017-12-28T06:11:15.856Z,98798
2017-12-28T06:13:43.962Z,98804
2017-12-28T06:16:12.075Z,98810
2017-12-28T06:18:40.946Z,98814
2017-12-28T06:25:14.296Z,98837
2017-12-28T06:27:43.213Z,98835
2017-12-28T06:30:11.459Z,98842
2017-12-28T06:32:40.093Z,98862
2017-12-28T06:35:08.458Z,98856
2017-12-28T06:37:36.605Z,98852
2017-12-28T06:40:05.005Z,98859
2017-12-28T06:42:33.219Z,98860
2017-12-28T06:45:02.194Z,98860
2017-12-28T06:47:30.279Z,98867
2017-12-28T06:49:59.372Z,98873
2017-12-28T06:52:27.471Z,98881
2017-12-28T06:54:56.709Z,98886
2017-12-28T06:57:24.831Z,98886
2017-12-28T06:59:54.717Z,98895
2017-12-28T07:02:23.476Z,98902
2017-12-28T07:04:51.807Z,98893
2017-12-28T07:07:19.955Z,98895
2017-12-28T07:09:48.038Z,98908
2017-12-28T07:12:16.215Z,98906
2017-12-28T07:14:44.286Z,98910
2017-12-28T07:17:15.207Z,98921
2017-12-28T07:19:43.339Z,98920
2017-12-28T07:22:11.433Z,98930
2017-12-28T07:24:39.816Z,98930
2017-12-28T07:27:08.659Z,98926
2017-12-28T07:32:15.710Z,98940
2017-12-28T07:34:46.500Z,98935
2017-12-28T07:37:15.456Z,98928
2017-12-28T07:55:03.595Z,98583
2017-12-28T08:00:14.351Z,98960
2017-12-28T08:02:46.041Z,98963
2017-12-28T08:05:21.217Z,98960
2017-12-28T08:10:29.389Z,98979
2017-12-28T08:12:59.413Z,98983
2017-12-28T08:15:31.490Z,98978
2017-12-28T08:17:59.571Z,98980
2017-12-28T08:20:27.723Z,98982
2017-12-28T08:22:55.878Z,98979
2017-12-28T08:25:23.970Z,98981
2017-12-28T08:27:52.384Z,98990
2017-12-28T08:30:21.239Z,98986
2017-12-28T08:32:49.405Z,98984
2017-12-28T08:35:17.496Z,98997
2017-12-28T08:37:54.284Z,98990
2017-12-28T08:40:22.353Z,98996
2017-12-28T08:42:51.338Z,98990
2017-12-28T08:45:19.420Z,99004
2017-12-28T08:47:48.668Z,98999
2017-12-28T08:50:16.794Z,99006
2017-12-28T08:52:47.351Z,99004
2017-12-28T08:55:16.239Z,99018
2017-12-28T08:57:45.800Z,99014
2017-12-28T09:00:15.769Z,99012
2017-12-28T09:02:43.845Z,99028
2017-12-28T09:05:13.290Z,99029
2017-12-28T09:07:42.127Z,99030
2017-12-28T09:10:10.319Z,99030
2017-12-28T09:12:38.607Z,99035
2017-12-28T09:15:06.745Z,99051
2017-12-28T09:17:34.834Z,99056
2017-12-28T09:20:02.976Z,99054
2017-12-28T09:25:47.260Z,99064
2017-12-28T09:28:15.463Z,99057
2017-12-28T09:30:43.648Z,99073
2017-12-28T09:33:11.790Z,99078
2017-12-28T09:35:40.688Z,99085
2017-12-28T09:38:08.784Z,99089
2017-12-28T09:40:36.900Z,99087
2017-12-28T09:43:05.127Z,99099
2017-12-28T09:45:33.199Z,99096
2017-12-28T09:48:01.315Z,99092
2017-12-28T09:50:29.423Z,99087
2017-12-28T09:52:57.556Z,99091
2017-12-28T09:55:25.650Z,99100
2017-12-28T09:57:54.675Z,99100
2017-12-28T10:00:22.762Z,99094
2017-12-28T10:05:41.888Z,99096
2017-12-28T10:08:09.982Z,99114
2017-12-28T10:13:54.463Z,99116
2017-12-28T10:16:22.665Z,99110
2017-12-28T10:18:50.862Z,99111
2017-12-28T10:21:21.129Z,99109
2017-12-28T10:23:50.014Z,99122
2017-12-28T10:26:18.869Z,99117
2017-12-28T10:28:47.005Z,99123
2017-12-28T10:31:15.079Z,99119
2017-12-28T10:33:43.194Z,99128
2017-12-28T10:36:11.428Z,99145
2017-12-28T10:38:39.655Z,99124
2017-12-28T10:41:09.050Z,99146
2017-12-28T10:43:37.203Z,99129
2017-12-28T10:46:05.303Z,99133
2017-12-28T10:54:45.898Z,99143
2017-12-28T10:57:14.154Z,99156
2017-12-28T10:59:43.113Z,99154
2017-12-28T11:02:12.995Z,99155
2017-12-28T11:04:41.188Z,99154
2017-12-28T11:07:09.295Z,99155
2017-12-28T11:09:38.170Z,99158
2017-12-28T11:12:10.307Z,99165
2017-12-28T11:14:38.680Z,99172
2017-12-28T11:17:08.838Z,99156
2017-12-28T11:19:38.036Z,99169
2017-12-28T11:22:06.183Z,99169
2017-12-28T11:24:34.271Z,99182
2017-12-28T11:27:02.424Z,99181
2017-12-28T11:29:30.527Z,99197
2017-12-28T11:31:58.609Z,99181
2017-12-28T11:34:26.748Z,99182
2017-12-28T11:36:55.607Z,99195
2017-12-28T11:39:23.725Z,99196
2017-12-28T11:41:52.691Z,99186
2017-12-28T11:44:20.760Z,99188
2017-12-28T11:49:28.503Z,99203
2017-12-28T11:52:03.126Z,99194
2017-12-28T11:54:32.134Z,99203
2017-12-28T11:57:02.194Z,99196
2017-12-28T11:59:30.341Z,99207
2017-12-28T12:05:08.344Z,99207
2017-12-28T12:07:41.124Z,99224
2017-12-28T12:10:12.361Z,99218
2017-12-28T12:12:41.431Z,99215
2017-12-28T12:15:09.568Z,99215
2017-12-28T12:17:38.711Z,99224
2017-12-28T12:20:07.154Z,99227
2017-12-28T12:22:35.222Z,99217
2017-12-28T12:25:03.375Z,99237
2017-12-28T12:27:31.526Z,99216
2017-12-28T12:30:00.416Z,99218
2017-12-28T12:32:29.311Z,99226
2017-12-28T12:34:58.153Z,99228
2017-12-28T12:37:26.288Z,99231
2017-12-28T12:39:54.362Z,99231
2017-12-28T12:42:22.482Z,99234
2017-12-28T12:44:51.746Z,99237
2017-12-28T12:47:20.757Z,99245
2017-12-28T12:49:48.879Z,99233
2017-12-28T12:52:19.500Z,99243
2017-12-28T12:54:47.625Z,99240
2017-12-28T12:57:15.720Z,99236
2017-12-28T12:59:43.874Z,99239
2017-12-28T13:02:12.016Z,99238
2017-12-28T13:04:40.144Z,99255
2017-12-28T13:07:09.004Z,99255
2017-12-28T13:09:37.158Z,99255
2017-12-28T13:12:06.352Z,99253
2017-12-28T13:14:35.191Z,99253
2017-12-28T13:19:54.450Z,99259
2017-12-28T13:22:22.592Z,99250
2017-12-28T13:24:51.543Z,99265
2017-12-28T13:27:19.715Z,99273
2017-12-28T13:29:47.899Z,99275
2017-12-28T13:32:16.105Z,99273
2017-12-28T13:34:44.206Z,99280
2017-12-28T13:37:12.341Z,99282
2017-12-28T13:39:40.535Z,99284
2017-12-28T13:42:08.627Z,99291
2017-12-28T13:44:36.787Z,99291
2017-12-28T13:47:05.488Z,99293
2017-12-28T13:49:33.919Z,99299
2017-12-28T13:52:02.875Z,99296
2017-12-28T13:54:30.962Z,99305
2017-12-28T13:56:59.174Z,99300
2017-12-28T13:59:28.097Z,99308
2017-12-28T14:01:56.204Z,99315
2017-12-28T14:04:24.410Z,99316
2017-12-28T14:10:08.644Z,99327
2017-12-28T14:12:36.831Z,99330
2017-12-28T14:15:05.004Z,99330
2017-12-28T14:17:33.075Z,99344
2017-12-28T14:20:03.363Z,99352
2017-12-28T14:22:31.495Z,99341
2017-12-28T14:24:59.616Z,99357
2017-12-28T14:27:27.768Z,99350
2017-12-28T14:29:55.861Z,99362
2017-12-28T14:32:23.972Z,99360
2017-12-28T14:34:52.127Z,99358
2017-12-28T14:37:20.246Z,99367
2017-12-28T14:39:50.035Z,99371
2017-12-28T14:42:18.205Z,99379
2017-12-28T14:44:46.318Z,99385
2017-12-28T14:47:14.546Z,99360
2017-12-28T14:52:58.826Z,99396
2017-12-28T14:55:26.971Z,99396
2017-12-28T14:57:55.147Z,99408
2017-12-28T15:00:23.874Z,99393
2017-12-28T15:02:52.934Z,99411
2017-12-28T15:05:21.130Z,99409
2017-12-28T15:07:49.242Z,99419
2017-12-28T15:10:17.434Z,99396
2017-12-28T15:12:45.520Z,99413
2017-12-28T15:15:13.669Z,99410
2017-12-28T15:17:41.750Z,99419
2017-12-28T15:20:11.283Z,99414
2017-12-28T15:22:39.411Z,99418
2017-12-28T15:25:07.496Z,99425
2017-12-28T15:27:35.596Z,99417
2017-12-28T15:30:03.736Z,99420
2017-12-28T15:32:31.879Z,99427
2017-12-28T15:35:02.596Z,99418
2017-12-28T15:37:30.705Z,99437
2017-12-28T15:39:59.556Z,99428
2017-12-28T15:42:27.938Z,99434
2017-12-28T15:44:56.018Z,99442
2017-12-28T15:47:24.247Z,99447
2017-12-28T15:49:52.330Z,99455
2017-12-28T15:52:20.494Z,99452
2017-12-28T15:54:48.632Z,99450
2017-12-28T15:57:16.716Z,99459
2017-12-28T15:59:44.801Z,99455
2017-12-28T16:02:13.084Z,99461
2017-12-28T16:04:41.242Z,99464
2017-12-28T16:07:09.412Z,99457
2017-12-28T16:09:37.485Z,99468
2017-12-28T16:12:05.715Z,99468
2017-12-28T16:14:33.990Z,99466
2017-12-28T16:17:02.075Z,99473
2017-12-28T16:19:30.320Z,99470
2017-12-28T16:22:04.643Z,99473
2017-12-28T16:27:24.623Z,99482
2017-12-28T16:29:52.802Z,99490
2017-12-28T16:32:20.885Z,99499
2017-12-28T16:34:49.067Z,99489
2017-12-28T16:37:17.183Z,99508
2017-12-28T16:39:46.100Z,99502
2017-12-28T16:42:14.187Z,99506
2017-12-28T16:44:42.311Z,99508
2017-12-28T16:47:11.234Z,99516
2017-12-28T16:49:39.445Z,99525
2017-12-28T16:52:07.556Z,99516
2017-12-28T16:54:36.638Z,99114
2017-12-28T16:57:04.796Z,99525
2017-12-28T16:59:32.877Z,99521
2017-12-28T17:02:01.055Z,99528
2017-12-28T17:04:29.167Z,99536
2017-12-28T17:06:57.336Z,99544
2017-12-28T17:09:26.270Z,99548
2017-12-28T17:11:54.631Z,99550
2017-12-28T17:17:01.645Z,99550
2017-12-28T17:19:29.840Z,99554
2017-12-28T17:21:57.915Z,99567
2017-12-28T17:24:26.042Z,99563
2017-12-28T17:26:54.106Z,99568
2017-12-28T17:29:22.354Z,99564
2017-12-28T17:31:50.764Z,99560
2017-12-28T17:34:18.908Z,99562
2017-12-28T17:36:47.877Z,99565
2017-12-28T17:39:15.947Z,99591
2017-12-28T17:41:44.120Z,99581
2017-12-28T17:44:12.207Z,99573
2017-12-28T17:46:40.278Z,99574
2017-12-28T17:49:08.486Z,99591
2017-12-28T17:51:36.690Z,99591
2017-12-28T17:54:05.661Z,99583
2017-12-28T17:56:33.783Z,99590
2017-12-28T17:59:03.905Z,99586
2017-12-28T18:01:32.094Z,99583
2017-12-28T18:04:12.426Z,99594
2017-12-28T18:06:42.160Z,99587
2017-12-28T18:09:12.829Z,99602
2017-12-28T18:11:40.891Z,99607
2017-12-28T18:14:09.036Z,99614
2017-12-28T18:16:37.219Z,99613
2017-12-28T18:19:06.119Z,99616
2017-12-28T18:21:35.087Z,99616
2017-12-28T18:24:03.288Z,99612
2017-12-28T18:26:32.207Z,99616
2017-12-28T18:29:00.353Z,99622
2017-12-28T18:31:28.499Z,99629
2017-12-28T18:33:58.581Z,99628
2017-12-28T18:36:26.835Z,99638
2017-12-28T18:38:54.915Z,99641
2017-12-28T18:41:22.988Z,99641
2017-12-28T18:43:53.022Z,99640
2017-12-28T18:46:21.180Z,99647
2017-12-28T18:48:50.564Z,99638
2017-12-28T18:51:19.443Z,99634
2017-12-28T18:53:47.600Z,99635
2017-12-28T18:56:15.752Z,99639
2017-12-28T18:58:43.895Z,99641
2017-12-28T19:01:12.069Z,99637
2017-12-28T19:03:40.305Z,99638
2017-12-28T19:06:08.432Z,99638
2017-12-28T19:08:36.859Z,99639
2017-12-28T19:11:04.950Z,99647
2017-12-28T19:13:34.034Z,99655
2017-12-28T19:16:03.036Z,99655
2017-12-28T19:18:32.004Z,99659
2017-12-28T19:21:00.295Z,99653
2017-12-28T19:23:29.166Z,99669
2017-12-28T19:25:57.341Z,99674
2017-12-28T19:28:26.342Z,99681
2017-12-28T19:31:03.435Z,99672
2017-12-28T19:33:32.823Z,99678
2017-12-28T19:36:00.959Z,99673
2017-12-28T19:38:29.098Z,99679
2017-12-28T19:40:57.221Z,99681
2017-12-28T19:43:25.504Z,99678
2017-12-28T19:45:53.704Z,99689
2017-12-28T19:48:22.969Z,99683
2017-12-28T19:50:51.035Z,99696
2017-12-28T19:53:19.123Z,99706
2017-12-28T19:55:47.242Z,99700
2017-12-28T19:58:17.819Z,99705
2017-12-28T20:00:46.052Z,99712
2017-12-28T20:03:14.144Z,99707
2017-12-28T20:05:42.277Z,99717
2017-12-28T20:08:11.130Z,99710
2017-12-28T20:10:39.746Z,99720
2017-12-28T20:13:07.899Z,99714
2017-12-28T20:15:36.008Z,99715
2017-12-28T20:18:04.128Z,99719
2017-12-28T20:20:32.266Z,99708
2017-12-28T20:23:00.403Z,99724
2017-12-28T20:25:28.615Z,99730
2017-12-28T20:27:56.708Z,99724
2017-12-28T20:30:29.672Z,99734
2017-12-28T20:32:57.878Z,99724
2017-12-28T20:35:26.065Z,99740
2017-12-28T20:37:54.150Z,99747
2017-12-28T20:40:22.386Z,99747
2017-12-28T20:42:50.495Z,99752
2017-12-28T20:45:18.616Z,99752
2017-12-28T20:47:46.758Z,99754
2017-12-28T20:50:14.955Z,99747
2017-12-28T20:52:43.856Z,99761
2017-12-28T20:55:11.995Z,99753
2017-12-28T20:57:40.255Z,99764
2017-12-28T21:00:08.412Z,99758
2017-12-28T21:02:36.619Z,99764
2017-12-28T21:05:04.774Z,99762
2017-12-28T21:10:11.768Z,99770
2017-12-28T21:15:55.233Z,99773
2017-12-28T21:18:23.389Z,99768
2017-12-28T21:20:51.534Z,99770
2017-12-28T21:23:19.683Z,99781
2017-12-28T21:25:52.080Z,99764
2017-12-28T21:28:20.217Z,99778
2017-12-28T21:30:49.082Z,99782
2017-12-28T21:33:17.227Z,99788
2017-12-28T21:35:45.333Z,99779
2017-12-28T21:38:13.450Z,99790
2017-12-28T21:40:41.734Z,99796
2017-12-28T21:43:09.881Z,99789
2017-12-28T21:45:38.098Z,99782
2017-12-28T21:48:06.231Z,99790
2017-12-28T21:50:35.206Z,99796
2017-12-28T21:53:03.327Z,99798
2017-12-28T21:55:31.712Z,99804
2017-12-28T21:57:59.880Z,99800
2017-12-28T22:00:28.007Z,99809
2017-12-28T22:02:56.194Z,99800
2017-12-28T22:05:24.329Z,99799
2017-12-28T22:07:52.432Z,99809
2017-12-28T22:10:20.562Z,99810
2017-12-28T22:12:50.638Z,99809
2017-12-28T22:15:19.496Z,99811
2017-12-28T22:17:47.628Z,99825
2017-12-28T22:20:15.732Z,99824
2017-12-28T22:22:43.892Z,99821
2017-12-28T22:25:11.995Z,99829
2017-12-28T22:27:40.078Z,99833
2017-12-28T22:30:08.256Z,99826
2017-12-28T22:32:36.336Z,99842
2017-12-28T22:35:04.425Z,99847
2017-12-28T22:37:32.668Z,99848
2017-12-28T22:44:13.659Z,99864
2017-12-28T22:46:41.766Z,99868
2017-12-28T22:49:10.848Z,99862
2017-12-28T22:51:39.727Z,99860
2017-12-28T22:54:07.917Z,99865
2017-12-28T22:56:36.007Z,99860
2017-12-28T22:59:04.189Z,99871
2017-12-28T23:01:32.305Z,99865
2017-12-28T23:04:00.554Z,99869
2017-12-28T23:06:28.688Z,99877
2017-12-28T23:09:00.253Z,99870
2017-12-28T23:11:29.183Z,99875
2017-12-28T23:13:58.131Z,99878
2017-12-28T23:16:27.976Z,99886
2017-12-28T23:18:56.094Z,99893
2017-12-28T23:21:27.863Z,99899
2017-12-28T23:23:56.749Z,99899
2017-12-28T23:26:25.016Z,99904
2017-12-28T23:28:53.163Z,99904
2017-12-28T23:31:21.315Z,99906
2017-12-28T23:33:49.441Z,99909
2017-12-28T23:36:17.827Z,99907
2017-12-28T23:38:46.783Z,99906
2017-12-28T23:41:14.976Z,99912
2017-12-28T23:43:44.027Z,99910
2017-12-28T23:46:12.179Z,99911
2017-12-28T23:48:41.062Z,99916
2017-12-28T23:51:09.968Z,99918
2017-12-28T23:53:38.099Z,99930
2017-12-28T23:56:06.614Z,99919
2017-12-28T23:58:34.798Z,99924
